sensor_id;sensor_type;location;lat;lon;timestamp;P1;durP1;ratioP1;P2;durP2;ratioP2
16393;SDS011;8306;51.128;4.476;2023-03-23T00:02:19;3.37;;;2.80;;
16393;SDS011;8306;51.128;4.476;2023-03-23T00:04:51;2.57;;;2.37;;
16393;SDS011;8306;51.128;4.476;2023-03-23T00:07:18;2.67;;;2.40;;
16393;SDS011;8306;51.128;4.476;2023-03-23T00:09:44;2.90;;;2.70;;
16393;SDS011;8306;51.128;4.476;2023-03-23T00:12:11;3.20;;;2.60;;
16393;SDS011;8306;51.128;4.476;2023-03-23T00:14:37;2.47;;;2.37;;
16393;SDS011;8306;51.128;4.476;2023-03-23T00:17:07;4.13;;;2.93;;
16393;SDS011;8306;51.128;4.476;2023-03-23T00:19:32;2.67;;;2.47;;
16393;SDS011;8306;51.128;4.476;2023-03-23T00:21:59;2.60;;;2.40;;
16393;SDS011;8306;51.128;4.476;2023-03-23T00:24:25;2.70;;;2.50;;
16393;SDS011;8306;51.128;4.476;2023-03-23T00:26:52;2.73;;;2.60;;
16393;SDS011;8306;51.128;4.476;2023-03-23T00:29:20;3.70;;;3.40;;
16393;SDS011;8306;51.128;4.476;2023-03-23T00:31:45;2.80;;;2.60;;
16393;SDS011;8306;51.128;4.476;2023-03-23T00:34:15;2.90;;;2.70;;
16393;SDS011;8306;51.128;4.476;2023-03-23T00:36:41;2.77;;;2.50;;
16393;SDS011;8306;51.128;4.476;2023-03-23T00:39:07;2.87;;;2.67;;
16393;SDS011;8306;51.128;4.476;2023-03-23T00:41:34;2.70;;;2.50;;
16393;SDS011;8306;51.128;4.476;2023-03-23T00:44:00;2.83;;;2.63;;
16393;SDS011;8306;51.128;4.476;2023-03-23T00:46:28;2.73;;;2.53;;
16393;SDS011;8306;51.128;4.476;2023-03-23T00:48:53;3.10;;;2.90;;
16393;SDS011;8306;51.128;4.476;2023-03-23T00:51:20;2.90;;;2.70;;
16393;SDS011;8306;51.128;4.476;2023-03-23T00:53:46;2.63;;;2.40;;
16393;SDS011;8306;51.128;4.476;2023-03-23T00:56:13;2.83;;;2.63;;
16393;SDS011;8306;51.128;4.476;2023-03-23T00:58:39;2.90;;;2.70;;
16393;SDS011;8306;51.128;4.476;2023-03-23T01:01:05;3.00;;;2.70;;
16393;SDS011;8306;51.128;4.476;2023-03-23T01:03:32;3.07;;;2.77;;
16393;SDS011;8306;51.128;4.476;2023-03-23T01:06:03;2.97;;;2.70;;
16393;SDS011;8306;51.128;4.476;2023-03-23T01:08:25;2.90;;;2.70;;
16393;SDS011;8306;51.128;4.476;2023-03-23T01:10:51;2.73;;;2.53;;
16393;SDS011;8306;51.128;4.476;2023-03-23T01:13:18;2.37;;;2.23;;
16393;SDS011;8306;51.128;4.476;2023-03-23T01:15:44;3.00;;;2.73;;
16393;SDS011;8306;51.128;4.476;2023-03-23T01:18:11;2.90;;;2.70;;
16393;SDS011;8306;51.128;4.476;2023-03-23T01:20:37;2.80;;;2.60;;
16393;SDS011;8306;51.128;4.476;2023-03-23T01:23:04;2.47;;;2.17;;
16393;SDS011;8306;51.128;4.476;2023-03-23T01:25:31;2.10;;;2.00;;
16393;SDS011;8306;51.128;4.476;2023-03-23T01:27:57;3.17;;;2.83;;
16393;SDS011;8306;51.128;4.476;2023-03-23T01:30:23;2.33;;;2.13;;
16393;SDS011;8306;51.128;4.476;2023-03-23T01:32:50;2.07;;;1.87;;
16393;SDS011;8306;51.128;4.476;2023-03-23T01:35:16;2.73;;;2.20;;
16393;SDS011;8306;51.128;4.476;2023-03-23T01:37:43;5.03;;;2.47;;
16393;SDS011;8306;51.128;4.476;2023-03-23T01:40:09;2.13;;;1.80;;
16393;SDS011;8306;51.128;4.476;2023-03-23T01:42:37;2.40;;;2.20;;
16393;SDS011;8306;51.128;4.476;2023-03-23T01:48:00;2.23;;;2.13;;
16393;SDS011;8306;51.128;4.476;2023-03-23T01:50:26;2.40;;;2.20;;
16393;SDS011;8306;51.128;4.476;2023-03-23T01:52:52;2.33;;;1.97;;
16393;SDS011;8306;51.128;4.476;2023-03-23T01:55:18;2.13;;;1.93;;
16393;SDS011;8306;51.128;4.476;2023-03-23T01:57:45;1.90;;;1.80;;
16393;SDS011;8306;51.128;4.476;2023-03-23T02:00:12;2.10;;;1.90;;
16393;SDS011;8306;51.128;4.476;2023-03-23T02:02:41;2.10;;;2.00;;
16393;SDS011;8306;51.128;4.476;2023-03-23T02:05:11;1.90;;;1.70;;
16393;SDS011;8306;51.128;4.476;2023-03-23T02:07:36;2.47;;;1.90;;
16393;SDS011;8306;51.128;4.476;2023-03-23T02:10:03;2.73;;;1.80;;
16393;SDS011;8306;51.128;4.476;2023-03-23T02:12:29;2.00;;;1.90;;
16393;SDS011;8306;51.128;4.476;2023-03-23T02:14:56;2.13;;;1.93;;
16393;SDS011;8306;51.128;4.476;2023-03-23T02:17:27;2.23;;;1.80;;
16393;SDS011;8306;51.128;4.476;2023-03-23T02:28:31;1.80;;;1.70;;
16393;SDS011;8306;51.128;4.476;2023-03-23T02:34:02;2.77;;;1.90;;
16393;SDS011;8306;51.128;4.476;2023-03-23T02:36:39;4.70;;;1.63;;
16393;SDS011;8306;51.128;4.476;2023-03-23T02:39:08;2.10;;;1.57;;
16393;SDS011;8306;51.128;4.476;2023-03-23T02:41:33;1.87;;;1.53;;
16393;SDS011;8306;51.128;4.476;2023-03-23T02:43:58;3.10;;;1.80;;
16393;SDS011;8306;51.128;4.476;2023-03-23T02:46:24;2.83;;;1.50;;
16393;SDS011;8306;51.128;4.476;2023-03-23T02:48:51;2.37;;;1.60;;
16393;SDS011;8306;51.128;4.476;2023-03-23T02:51:18;3.17;;;1.60;;
16393;SDS011;8306;51.128;4.476;2023-03-23T02:53:44;3.97;;;1.67;;
16393;SDS011;8306;51.128;4.476;2023-03-23T02:56:10;1.77;;;1.17;;
16393;SDS011;8306;51.128;4.476;2023-03-23T02:58:37;2.70;;;1.57;;
16393;SDS011;8306;51.128;4.476;2023-03-23T03:03:45;2.53;;;1.50;;
16393;SDS011;8306;51.128;4.476;2023-03-23T03:08:41;2.37;;;1.37;;
16393;SDS011;8306;51.128;4.476;2023-03-23T03:13:47;2.07;;;1.30;;
16393;SDS011;8306;51.128;4.476;2023-03-23T03:18:50;2.30;;;1.13;;
16393;SDS011;8306;51.128;4.476;2023-03-23T03:21:12;3.57;;;1.53;;
16393;SDS011;8306;51.128;4.476;2023-03-23T03:23:38;2.90;;;1.40;;
16393;SDS011;8306;51.128;4.476;2023-03-23T03:26:04;3.20;;;1.50;;
16393;SDS011;8306;51.128;4.476;2023-03-23T03:28:31;3.17;;;1.30;;
16393;SDS011;8306;51.128;4.476;2023-03-23T03:30:57;2.67;;;1.10;;
16393;SDS011;8306;51.128;4.476;2023-03-23T03:33:23;1.83;;;1.27;;
16393;SDS011;8306;51.128;4.476;2023-03-23T03:35:50;2.23;;;1.00;;
16393;SDS011;8306;51.128;4.476;2023-03-23T03:38:16;2.87;;;1.00;;
16393;SDS011;8306;51.128;4.476;2023-03-23T03:40:43;3.10;;;1.40;;
16393;SDS011;8306;51.128;4.476;2023-03-23T03:43:09;1.93;;;1.00;;
16393;SDS011;8306;51.128;4.476;2023-03-23T03:45:36;1.63;;;1.00;;
16393;SDS011;8306;51.128;4.476;2023-03-23T03:48:02;3.10;;;1.20;;
16393;SDS011;8306;51.128;4.476;2023-03-23T03:50:29;3.03;;;1.30;;
16393;SDS011;8306;51.128;4.476;2023-03-23T03:52:55;3.27;;;1.00;;
16393;SDS011;8306;51.128;4.476;2023-03-23T03:55:22;2.20;;;1.07;;
16393;SDS011;8306;51.128;4.476;2023-03-23T03:57:48;1.30;;;0.93;;
16393;SDS011;8306;51.128;4.476;2023-03-23T04:00:15;2.13;;;1.07;;
16393;SDS011;8306;51.128;4.476;2023-03-23T04:02:42;2.63;;;1.17;;
16393;SDS011;8306;51.128;4.476;2023-03-23T04:05:10;2.53;;;1.07;;
16393;SDS011;8306;51.128;4.476;2023-03-23T04:07:37;2.47;;;1.40;;
16393;SDS011;8306;51.128;4.476;2023-03-23T04:10:04;2.00;;;1.17;;
16393;SDS011;8306;51.128;4.476;2023-03-23T04:12:32;3.43;;;1.50;;
16393;SDS011;8306;51.128;4.476;2023-03-23T04:14:59;3.37;;;1.40;;
16393;SDS011;8306;51.128;4.476;2023-03-23T04:17:25;3.73;;;1.53;;
16393;SDS011;8306;51.128;4.476;2023-03-23T04:19:52;3.57;;;1.50;;
16393;SDS011;8306;51.128;4.476;2023-03-23T04:22:18;3.57;;;1.00;;
16393;SDS011;8306;51.128;4.476;2023-03-23T04:24:45;2.77;;;1.10;;
16393;SDS011;8306;51.128;4.476;2023-03-23T04:27:11;2.87;;;1.57;;
16393;SDS011;8306;51.128;4.476;2023-03-23T04:29:38;2.57;;;1.20;;
16393;SDS011;8306;51.128;4.476;2023-03-23T04:32:04;2.93;;;1.57;;
16393;SDS011;8306;51.128;4.476;2023-03-23T04:34:31;2.07;;;1.17;;
16393;SDS011;8306;51.128;4.476;2023-03-23T04:36:57;2.63;;;1.30;;
16393;SDS011;8306;51.128;4.476;2023-03-23T04:39:24;3.60;;;1.30;;
16393;SDS011;8306;51.128;4.476;2023-03-23T04:41:50;6.57;;;1.53;;
16393;SDS011;8306;51.128;4.476;2023-03-23T04:44:17;3.10;;;1.10;;
16393;SDS011;8306;51.128;4.476;2023-03-23T04:46:44;2.80;;;1.20;;
16393;SDS011;8306;51.128;4.476;2023-03-23T04:49:09;4.70;;;1.40;;
16393;SDS011;8306;51.128;4.476;2023-03-23T04:51:36;2.87;;;1.50;;
16393;SDS011;8306;51.128;4.476;2023-03-23T04:54:02;3.03;;;1.23;;
16393;SDS011;8306;51.128;4.476;2023-03-23T04:56:29;3.73;;;1.30;;
16393;SDS011;8306;51.128;4.476;2023-03-23T04:58:55;4.43;;;1.60;;
16393;SDS011;8306;51.128;4.476;2023-03-23T05:01:22;3.83;;;1.67;;
16393;SDS011;8306;51.128;4.476;2023-03-23T05:03:48;3.27;;;1.37;;
16393;SDS011;8306;51.128;4.476;2023-03-23T05:06:15;4.00;;;1.40;;
16393;SDS011;8306;51.128;4.476;2023-03-23T05:08:41;3.23;;;1.47;;
16393;SDS011;8306;51.128;4.476;2023-03-23T05:11:08;4.17;;;1.53;;
16393;SDS011;8306;51.128;4.476;2023-03-23T05:13:34;4.33;;;1.77;;
16393;SDS011;8306;51.128;4.476;2023-03-23T05:16:04;4.40;;;1.40;;
16393;SDS011;8306;51.128;4.476;2023-03-23T05:18:30;3.57;;;1.70;;
16393;SDS011;8306;51.128;4.476;2023-03-23T05:21:00;3.40;;;1.33;;
16393;SDS011;8306;51.128;4.476;2023-03-23T05:23:26;5.27;;;1.60;;
16393;SDS011;8306;51.128;4.476;2023-03-23T05:25:56;3.33;;;1.20;;
16393;SDS011;8306;51.128;4.476;2023-03-23T05:28:22;4.07;;;1.37;;
16393;SDS011;8306;51.128;4.476;2023-03-23T05:30:48;4.73;;;1.50;;
16393;SDS011;8306;51.128;4.476;2023-03-23T05:33:15;4.00;;;1.23;;
16393;SDS011;8306;51.128;4.476;2023-03-23T05:35:41;4.93;;;1.33;;
16393;SDS011;8306;51.128;4.476;2023-03-23T05:38:07;2.87;;;1.40;;
16393;SDS011;8306;51.128;4.476;2023-03-23T05:40:34;3.87;;;1.60;;
16393;SDS011;8306;51.128;4.476;2023-03-23T05:43:00;4.07;;;1.50;;
16393;SDS011;8306;51.128;4.476;2023-03-23T05:45:27;3.90;;;1.67;;
16393;SDS011;8306;51.128;4.476;2023-03-23T05:47:53;3.23;;;1.67;;
16393;SDS011;8306;51.128;4.476;2023-03-23T05:50:20;3.73;;;1.40;;
16393;SDS011;8306;51.128;4.476;2023-03-23T05:52:46;1.97;;;1.00;;
16393;SDS011;8306;51.128;4.476;2023-03-23T05:55:13;3.70;;;1.50;;
16393;SDS011;8306;51.128;4.476;2023-03-23T05:57:39;2.93;;;1.10;;
16393;SDS011;8306;51.128;4.476;2023-03-23T06:00:06;3.77;;;1.60;;
16393;SDS011;8306;51.128;4.476;2023-03-23T06:02:47;4.67;;;1.30;;
16393;SDS011;8306;51.128;4.476;2023-03-23T06:05:14;6.10;;;1.67;;
16393;SDS011;8306;51.128;4.476;2023-03-23T06:07:40;2.47;;;1.30;;
16393;SDS011;8306;51.128;4.476;2023-03-23T06:10:07;2.73;;;1.40;;
16393;SDS011;8306;51.128;4.476;2023-03-23T06:12:33;3.27;;;1.37;;
16393;SDS011;8306;51.128;4.476;2023-03-23T06:15:00;4.13;;;1.50;;
16393;SDS011;8306;51.128;4.476;2023-03-23T06:17:26;2.47;;;1.50;;
16393;SDS011;8306;51.128;4.476;2023-03-23T06:19:53;3.43;;;1.40;;
16393;SDS011;8306;51.128;4.476;2023-03-23T06:22:19;3.67;;;1.33;;
16393;SDS011;8306;51.128;4.476;2023-03-23T06:24:46;2.23;;;1.17;;
16393;SDS011;8306;51.128;4.476;2023-03-23T06:27:12;3.53;;;1.30;;
16393;SDS011;8306;51.128;4.476;2023-03-23T06:29:39;3.23;;;1.30;;
16393;SDS011;8306;51.128;4.476;2023-03-23T06:32:05;4.23;;;1.47;;
16393;SDS011;8306;51.128;4.476;2023-03-23T06:34:32;4.20;;;1.70;;
16393;SDS011;8306;51.128;4.476;2023-03-23T06:36:58;3.93;;;1.50;;
16393;SDS011;8306;51.128;4.476;2023-03-23T06:39:25;4.50;;;1.47;;
16393;SDS011;8306;51.128;4.476;2023-03-23T06:41:51;3.57;;;1.30;;
16393;SDS011;8306;51.128;4.476;2023-03-23T06:44:17;2.60;;;0.87;;
16393;SDS011;8306;51.128;4.476;2023-03-23T06:46:44;1.60;;;0.80;;
16393;SDS011;8306;51.128;4.476;2023-03-23T06:49:10;2.67;;;1.00;;
16393;SDS011;8306;51.128;4.476;2023-03-23T06:51:37;2.57;;;0.70;;
16393;SDS011;8306;51.128;4.476;2023-03-23T06:54:04;2.73;;;0.70;;
16393;SDS011;8306;51.128;4.476;2023-03-23T06:56:30;2.87;;;0.70;;
16393;SDS011;8306;51.128;4.476;2023-03-23T06:58:56;1.97;;;0.70;;
16393;SDS011;8306;51.128;4.476;2023-03-23T07:01:23;3.00;;;0.93;;
16393;SDS011;8306;51.128;4.476;2023-03-23T07:03:49;2.53;;;0.90;;
16393;SDS011;8306;51.128;4.476;2023-03-23T07:06:16;2.10;;;0.90;;
16393;SDS011;8306;51.128;4.476;2023-03-23T07:08:42;2.47;;;1.03;;
16393;SDS011;8306;51.128;4.476;2023-03-23T07:11:09;4.83;;;0.90;;
16393;SDS011;8306;51.128;4.476;2023-03-23T07:13:35;2.20;;;0.90;;
16393;SDS011;8306;51.128;4.476;2023-03-23T07:16:04;3.17;;;1.20;;
16393;SDS011;8306;51.128;4.476;2023-03-23T07:18:28;2.43;;;1.07;;
16393;SDS011;8306;51.128;4.476;2023-03-23T07:20:57;2.30;;;0.67;;
16393;SDS011;8306;51.128;4.476;2023-03-23T07:23:24;2.07;;;0.60;;
16393;SDS011;8306;51.128;4.476;2023-03-23T07:25:50;1.97;;;0.87;;
16393;SDS011;8306;51.128;4.476;2023-03-23T07:28:17;1.47;;;0.67;;
16393;SDS011;8306;51.128;4.476;2023-03-23T07:30:43;3.83;;;1.13;;
16393;SDS011;8306;51.128;4.476;2023-03-23T07:33:10;1.10;;;0.63;;
16393;SDS011;8306;51.128;4.476;2023-03-23T07:35:36;1.67;;;0.70;;
16393;SDS011;8306;51.128;4.476;2023-03-23T07:38:04;0.90;;;0.50;;
16393;SDS011;8306;51.128;4.476;2023-03-23T07:40:29;0.83;;;0.60;;
16393;SDS011;8306;51.128;4.476;2023-03-23T07:42:56;3.07;;;0.90;;
16393;SDS011;8306;51.128;4.476;2023-03-23T07:45:22;2.67;;;0.87;;
16393;SDS011;8306;51.128;4.476;2023-03-23T07:47:49;1.87;;;0.63;;
16393;SDS011;8306;51.128;4.476;2023-03-23T07:50:15;2.00;;;0.70;;
16393;SDS011;8306;51.128;4.476;2023-03-23T07:52:42;2.00;;;0.70;;
16393;SDS011;8306;51.128;4.476;2023-03-23T07:55:09;1.37;;;0.70;;
16393;SDS011;8306;51.128;4.476;2023-03-23T07:57:35;1.43;;;0.73;;
16393;SDS011;8306;51.128;4.476;2023-03-23T08:00:01;1.20;;;0.70;;
16393;SDS011;8306;51.128;4.476;2023-03-23T08:02:27;2.20;;;0.60;;
16393;SDS011;8306;51.128;4.476;2023-03-23T08:04:54;2.17;;;0.70;;
16393;SDS011;8306;51.128;4.476;2023-03-23T08:07:20;2.70;;;0.57;;
16393;SDS011;8306;51.128;4.476;2023-03-23T08:09:47;1.67;;;0.70;;
16393;SDS011;8306;51.128;4.476;2023-03-23T08:12:13;1.00;;;0.60;;
16393;SDS011;8306;51.128;4.476;2023-03-23T08:14:40;1.27;;;0.60;;
16393;SDS011;8306;51.128;4.476;2023-03-23T08:17:07;1.57;;;0.73;;
16393;SDS011;8306;51.128;4.476;2023-03-23T08:19:33;2.03;;;0.73;;
16393;SDS011;8306;51.128;4.476;2023-03-23T08:21:59;2.63;;;1.13;;
16393;SDS011;8306;51.128;4.476;2023-03-23T08:24:26;2.43;;;0.70;;
16393;SDS011;8306;51.128;4.476;2023-03-23T08:26:52;1.87;;;0.80;;
16393;SDS011;8306;51.128;4.476;2023-03-23T08:29:19;2.43;;;0.70;;
16393;SDS011;8306;51.128;4.476;2023-03-23T08:31:45;2.53;;;0.90;;
16393;SDS011;8306;51.128;4.476;2023-03-23T08:34:12;2.83;;;0.80;;
16393;SDS011;8306;51.128;4.476;2023-03-23T08:36:39;2.10;;;0.83;;
16393;SDS011;8306;51.128;4.476;2023-03-23T08:39:05;2.13;;;0.70;;
16393;SDS011;8306;51.128;4.476;2023-03-23T08:41:32;2.17;;;0.90;;
16393;SDS011;8306;51.128;4.476;2023-03-23T08:43:58;2.60;;;1.20;;
16393;SDS011;8306;51.128;4.476;2023-03-23T08:46:25;2.13;;;0.83;;
16393;SDS011;8306;51.128;4.476;2023-03-23T08:48:51;3.70;;;1.00;;
16393;SDS011;8306;51.128;4.476;2023-03-23T08:51:18;3.07;;;1.27;;
16393;SDS011;8306;51.128;4.476;2023-03-23T08:53:44;1.90;;;1.00;;
16393;SDS011;8306;51.128;4.476;2023-03-23T08:56:11;1.97;;;1.00;;
16393;SDS011;8306;51.128;4.476;2023-03-23T08:58:37;2.77;;;1.20;;
16393;SDS011;8306;51.128;4.476;2023-03-23T09:01:04;2.20;;;1.10;;
16393;SDS011;8306;51.128;4.476;2023-03-23T09:03:30;1.60;;;1.20;;
16393;SDS011;8306;51.128;4.476;2023-03-23T09:06:00;2.37;;;1.00;;
16393;SDS011;8306;51.128;4.476;2023-03-23T09:08:26;1.20;;;1.07;;
16393;SDS011;8306;51.128;4.476;2023-03-23T09:10:52;2.37;;;1.10;;
16393;SDS011;8306;51.128;4.476;2023-03-23T09:13:19;1.53;;;0.90;;
16393;SDS011;8306;51.128;4.476;2023-03-23T09:15:45;1.13;;;0.80;;
16393;SDS011;8306;51.128;4.476;2023-03-23T09:18:12;1.33;;;0.80;;
16393;SDS011;8306;51.128;4.476;2023-03-23T09:20:38;2.00;;;1.13;;
16393;SDS011;8306;51.128;4.476;2023-03-23T09:23:04;1.70;;;1.20;;
16393;SDS011;8306;51.128;4.476;2023-03-23T09:25:31;1.90;;;1.30;;
16393;SDS011;8306;51.128;4.476;2023-03-23T09:27:58;2.23;;;1.13;;
16393;SDS011;8306;51.128;4.476;2023-03-23T09:30:25;1.60;;;1.00;;
16393;SDS011;8306;51.128;4.476;2023-03-23T09:32:50;2.13;;;1.00;;
16393;SDS011;8306;51.128;4.476;2023-03-23T09:35:17;3.30;;;1.30;;
16393;SDS011;8306;51.128;4.476;2023-03-23T09:37:44;2.20;;;1.10;;
16393;SDS011;8306;51.128;4.476;2023-03-23T09:40:11;3.03;;;1.43;;
16393;SDS011;8306;51.128;4.476;2023-03-23T09:42:42;2.50;;;1.30;;
16393;SDS011;8306;51.128;4.476;2023-03-23T09:48:10;2.67;;;1.20;;
16393;SDS011;8306;51.128;4.476;2023-03-23T09:50:32;1.30;;;1.07;;
16393;SDS011;8306;51.128;4.476;2023-03-23T09:52:59;1.77;;;1.00;;
16393;SDS011;8306;51.128;4.476;2023-03-23T09:55:24;1.80;;;1.10;;
16393;SDS011;8306;51.128;4.476;2023-03-23T10:00:43;2.07;;;1.03;;
16393;SDS011;8306;51.128;4.476;2023-03-23T10:03:05;1.40;;;0.80;;
16393;SDS011;8306;51.128;4.476;2023-03-23T10:05:39;1.77;;;1.20;;
16393;SDS011;8306;51.128;4.476;2023-03-23T10:08:25;1.47;;;0.90;;
16393;SDS011;8306;51.128;4.476;2023-03-23T10:10:45;2.37;;;0.93;;
16393;SDS011;8306;51.128;4.476;2023-03-23T10:13:23;2.53;;;0.90;;
16393;SDS011;8306;51.128;4.476;2023-03-23T10:15:46;2.17;;;0.93;;
16393;SDS011;8306;51.128;4.476;2023-03-23T10:20:55;1.77;;;1.00;;
16393;SDS011;8306;51.128;4.476;2023-03-23T10:23:41;2.07;;;1.10;;
16393;SDS011;8306;51.128;4.476;2023-03-23T10:29:01;1.90;;;0.93;;
16393;SDS011;8306;51.128;4.476;2023-03-23T10:34:57;2.30;;;1.10;;
16393;SDS011;8306;51.128;4.476;2023-03-23T10:37:18;2.47;;;1.20;;
16393;SDS011;8306;51.128;4.476;2023-03-23T10:39:59;2.53;;;1.10;;
16393;SDS011;8306;51.128;4.476;2023-03-23T10:42:25;3.97;;;1.33;;
16393;SDS011;8306;51.128;4.476;2023-03-23T10:44:51;3.30;;;1.53;;
16393;SDS011;8306;51.128;4.476;2023-03-23T10:47:17;2.07;;;1.20;;
16393;SDS011;8306;51.128;4.476;2023-03-23T10:52:35;3.97;;;1.67;;
16393;SDS011;8306;51.128;4.476;2023-03-23T10:55:00;3.27;;;1.87;;
16393;SDS011;8306;51.128;4.476;2023-03-23T10:57:25;2.50;;;1.30;;
16393;SDS011;8306;51.128;4.476;2023-03-23T10:59:50;4.73;;;1.50;;
16393;SDS011;8306;51.128;4.476;2023-03-23T11:02:17;2.30;;;1.23;;
16393;SDS011;8306;51.128;4.476;2023-03-23T11:04:46;2.80;;;1.77;;
16393;SDS011;8306;51.128;4.476;2023-03-23T11:07:17;2.20;;;1.43;;
16393;SDS011;8306;51.128;4.476;2023-03-23T11:09:40;2.73;;;1.57;;
16393;SDS011;8306;51.128;4.476;2023-03-23T11:12:15;3.53;;;1.40;;
16393;SDS011;8306;51.128;4.476;2023-03-23T11:14:33;4.00;;;1.40;;
16393;SDS011;8306;51.128;4.476;2023-03-23T11:16:59;3.87;;;1.20;;
16393;SDS011;8306;51.128;4.476;2023-03-23T11:19:26;2.40;;;1.20;;
16393;SDS011;8306;51.128;4.476;2023-03-23T11:21:52;2.60;;;1.40;;
16393;SDS011;8306;51.128;4.476;2023-03-23T11:24:17;3.83;;;1.77;;
16393;SDS011;8306;51.128;4.476;2023-03-23T11:26:44;2.40;;;1.37;;
16393;SDS011;8306;51.128;4.476;2023-03-23T11:29:14;3.13;;;1.40;;
16393;SDS011;8306;51.128;4.476;2023-03-23T11:31:44;2.40;;;1.77;;
16393;SDS011;8306;51.128;4.476;2023-03-23T11:34:10;3.40;;;1.63;;
16393;SDS011;8306;51.128;4.476;2023-03-23T11:38:57;4.13;;;1.93;;
16393;SDS011;8306;51.128;4.476;2023-03-23T11:41:24;3.07;;;1.50;;
16393;SDS011;8306;51.128;4.476;2023-03-23T11:43:51;3.63;;;1.83;;
16393;SDS011;8306;51.128;4.476;2023-03-23T11:48:51;2.97;;;1.70;;
16393;SDS011;8306;51.128;4.476;2023-03-23T11:51:20;4.80;;;2.20;;
16393;SDS011;8306;51.128;4.476;2023-03-23T11:57:00;4.47;;;2.03;;
16393;SDS011;8306;51.128;4.476;2023-03-23T11:59:33;3.97;;;1.93;;
16393;SDS011;8306;51.128;4.476;2023-03-23T12:07:51;3.57;;;1.90;;
16393;SDS011;8306;51.128;4.476;2023-03-23T12:10:23;4.40;;;1.93;;
16393;SDS011;8306;51.128;4.476;2023-03-23T12:16:07;4.23;;;2.07;;
16393;SDS011;8306;51.128;4.476;2023-03-23T12:18:55;4.00;;;2.23;;
16393;SDS011;8306;51.128;4.476;2023-03-23T12:21:21;4.37;;;1.97;;
16393;SDS011;8306;51.128;4.476;2023-03-23T12:24:02;4.90;;;2.37;;
16393;SDS011;8306;51.128;4.476;2023-03-23T12:32:22;2.80;;;1.53;;
16393;SDS011;8306;51.128;4.476;2023-03-23T12:37:34;2.90;;;1.60;;
16393;SDS011;8306;51.128;4.476;2023-03-23T12:42:54;3.67;;;1.50;;
16393;SDS011;8306;51.128;4.476;2023-03-23T12:47:54;5.30;;;1.57;;
16393;SDS011;8306;51.128;4.476;2023-03-23T12:53:26;3.03;;;1.33;;
16393;SDS011;8306;51.128;4.476;2023-03-23T12:58:34;3.93;;;1.60;;
16393;SDS011;8306;51.128;4.476;2023-03-23T13:01:00;4.23;;;1.60;;
16393;SDS011;8306;51.128;4.476;2023-03-23T13:08:56;3.87;;;1.73;;
16393;SDS011;8306;51.128;4.476;2023-03-23T13:11:22;4.83;;;1.70;;
16393;SDS011;8306;51.128;4.476;2023-03-23T13:13:50;4.57;;;2.03;;
16393;SDS011;8306;51.128;4.476;2023-03-23T13:16:42;4.03;;;1.80;;
16393;SDS011;8306;51.128;4.476;2023-03-23T13:19:26;4.00;;;1.67;;
16393;SDS011;8306;51.128;4.476;2023-03-23T13:22:00;4.43;;;2.10;;
16393;SDS011;8306;51.128;4.476;2023-03-23T13:24:26;4.23;;;2.00;;
16393;SDS011;8306;51.128;4.476;2023-03-23T13:26:51;3.80;;;1.50;;
16393;SDS011;8306;51.128;4.476;2023-03-23T13:29:18;3.10;;;1.50;;
16393;SDS011;8306;51.128;4.476;2023-03-23T13:31:45;3.13;;;1.57;;
16393;SDS011;8306;51.128;4.476;2023-03-23T13:36:45;2.13;;;1.03;;
16393;SDS011;8306;51.128;4.476;2023-03-23T13:39:19;4.97;;;1.70;;
16393;SDS011;8306;51.128;4.476;2023-03-23T13:41:46;2.97;;;1.20;;
16393;SDS011;8306;51.128;4.476;2023-03-23T13:44:19;3.47;;;1.73;;
16393;SDS011;8306;51.128;4.476;2023-03-23T13:46:53;4.23;;;1.90;;
16393;SDS011;8306;51.128;4.476;2023-03-23T13:51:51;3.83;;;1.83;;
16393;SDS011;8306;51.128;4.476;2023-03-23T13:54:19;3.30;;;1.70;;
16393;SDS011;8306;51.128;4.476;2023-03-23T13:56:42;4.67;;;1.60;;
16393;SDS011;8306;51.128;4.476;2023-03-23T13:59:13;3.23;;;1.73;;
16393;SDS011;8306;51.128;4.476;2023-03-23T14:01:35;4.83;;;2.00;;
16393;SDS011;8306;51.128;4.476;2023-03-23T14:04:00;4.20;;;1.57;;
16393;SDS011;8306;51.128;4.476;2023-03-23T14:06:27;3.73;;;1.57;;
16393;SDS011;8306;51.128;4.476;2023-03-23T14:08:53;4.47;;;1.67;;
16393;SDS011;8306;51.128;4.476;2023-03-23T14:11:21;4.23;;;1.90;;
16393;SDS011;8306;51.128;4.476;2023-03-23T14:16:48;3.73;;;1.67;;
16393;SDS011;8306;51.128;4.476;2023-03-23T14:21:57;3.57;;;1.43;;
16393;SDS011;8306;51.128;4.476;2023-03-23T14:24:23;5.27;;;1.47;;
16393;SDS011;8306;51.128;4.476;2023-03-23T14:26:49;3.60;;;1.70;;
16393;SDS011;8306;51.128;4.476;2023-03-23T14:29:15;3.10;;;1.30;;
16393;SDS011;8306;51.128;4.476;2023-03-23T14:31:42;3.27;;;1.30;;
16393;SDS011;8306;51.128;4.476;2023-03-23T14:34:12;3.47;;;1.50;;
16393;SDS011;8306;51.128;4.476;2023-03-23T14:36:40;3.10;;;1.20;;
16393;SDS011;8306;51.128;4.476;2023-03-23T14:39:14;3.07;;;1.33;;
16393;SDS011;8306;51.128;4.476;2023-03-23T14:41:34;4.43;;;1.40;;
16393;SDS011;8306;51.128;4.476;2023-03-23T14:44:00;2.53;;;1.33;;
16393;SDS011;8306;51.128;4.476;2023-03-23T14:46:26;4.20;;;1.60;;
16393;SDS011;8306;51.128;4.476;2023-03-23T14:48:52;3.43;;;1.40;;
16393;SDS011;8306;51.128;4.476;2023-03-23T14:51:20;3.43;;;1.50;;
16393;SDS011;8306;51.128;4.476;2023-03-23T14:53:46;4.60;;;1.70;;
16393;SDS011;8306;51.128;4.476;2023-03-23T14:56:13;4.23;;;1.43;;
16393;SDS011;8306;51.128;4.476;2023-03-23T14:58:42;2.83;;;1.43;;
16393;SDS011;8306;51.128;4.476;2023-03-23T15:01:06;3.60;;;1.50;;
16393;SDS011;8306;51.128;4.476;2023-03-23T15:03:36;3.00;;;1.40;;
16393;SDS011;8306;51.128;4.476;2023-03-23T15:06:01;5.27;;;2.10;;
16393;SDS011;8306;51.128;4.476;2023-03-23T15:08:28;3.10;;;1.40;;
16393;SDS011;8306;51.128;4.476;2023-03-23T15:10:54;3.13;;;1.63;;
16393;SDS011;8306;51.128;4.476;2023-03-23T15:13:20;3.83;;;1.57;;
16393;SDS011;8306;51.128;4.476;2023-03-23T15:15:46;3.00;;;1.60;;
16393;SDS011;8306;51.128;4.476;2023-03-23T15:18:26;3.87;;;1.63;;
16393;SDS011;8306;51.128;4.476;2023-03-23T15:20:48;6.33;;;1.90;;
16393;SDS011;8306;51.128;4.476;2023-03-23T15:23:21;4.83;;;2.10;;
16393;SDS011;8306;51.128;4.476;2023-03-23T15:25:51;4.50;;;2.00;;
16393;SDS011;8306;51.128;4.476;2023-03-23T15:28:18;4.87;;;2.10;;
16393;SDS011;8306;51.128;4.476;2023-03-23T15:30:46;4.43;;;2.10;;
16393;SDS011;8306;51.128;4.476;2023-03-23T15:33:12;3.53;;;2.10;;
16393;SDS011;8306;51.128;4.476;2023-03-23T15:35:39;4.83;;;2.03;;
16393;SDS011;8306;51.128;4.476;2023-03-23T15:38:05;5.10;;;2.30;;
16393;SDS011;8306;51.128;4.476;2023-03-23T15:40:35;7.13;;;2.30;;
16393;SDS011;8306;51.128;4.476;2023-03-23T15:45:52;4.73;;;1.87;;
16393;SDS011;8306;51.128;4.476;2023-03-23T15:48:17;4.73;;;2.10;;
16393;SDS011;8306;51.128;4.476;2023-03-23T15:50:44;4.63;;;1.67;;
16393;SDS011;8306;51.128;4.476;2023-03-23T15:53:15;4.63;;;2.10;;
16393;SDS011;8306;51.128;4.476;2023-03-23T15:55:37;4.50;;;2.00;;
16393;SDS011;8306;51.128;4.476;2023-03-23T15:58:12;5.07;;;2.70;;
16393;SDS011;8306;51.128;4.476;2023-03-23T16:00:39;4.43;;;2.23;;
16393;SDS011;8306;51.128;4.476;2023-03-23T16:03:06;4.10;;;2.10;;
16393;SDS011;8306;51.128;4.476;2023-03-23T16:05:31;5.17;;;2.20;;
16393;SDS011;8306;51.128;4.476;2023-03-23T16:07:58;4.80;;;2.17;;
16393;SDS011;8306;51.128;4.476;2023-03-23T16:10:25;4.53;;;1.97;;
16393;SDS011;8306;51.128;4.476;2023-03-23T16:12:51;4.73;;;2.27;;
16393;SDS011;8306;51.128;4.476;2023-03-23T16:15:17;5.03;;;2.33;;
16393;SDS011;8306;51.128;4.476;2023-03-23T16:17:44;3.70;;;1.83;;
16393;SDS011;8306;51.128;4.476;2023-03-23T16:20:17;5.43;;;2.50;;
16393;SDS011;8306;51.128;4.476;2023-03-23T16:22:39;7.37;;;3.07;;
16393;SDS011;8306;51.128;4.476;2023-03-23T16:25:06;4.23;;;2.07;;
16393;SDS011;8306;51.128;4.476;2023-03-23T16:27:33;5.33;;;2.37;;
16393;SDS011;8306;51.128;4.476;2023-03-23T16:29:59;4.90;;;2.23;;
16393;SDS011;8306;51.128;4.476;2023-03-23T16:32:25;6.30;;;3.00;;
16393;SDS011;8306;51.128;4.476;2023-03-23T16:34:52;6.30;;;2.90;;
16393;SDS011;8306;51.128;4.476;2023-03-23T16:37:18;4.97;;;2.60;;
16393;SDS011;8306;51.128;4.476;2023-03-23T16:39:45;6.30;;;2.70;;